Saturday, January 20, 2018, 10:02 AM EST
Back to Local

KTTN, Trenton Mercer County Airport

Location: Trenton, NJ, United States Lat: 40.283
Local Time: 10:02 AM EST (15:02 GMT) Lon: -74.817
Time Zone: US/Eastern Elev: 213 ft

Show me the last for .
Show Decoded

2018-01-20 08:53 METAR KTTN 201353Z 22007KT 10SM CLR 06/M04 A2992 RMK AO2 SLP128 T00561044 $ =
2018-01-20 07:53 METAR KTTN 201253Z 23006KT 10SM CLR 03/M06 A2991 RMK AO2 SLP125 T00281056 $ =
2018-01-20 06:53 METAR KTTN 201153Z 23004KT 10SM CLR 01/M07 A2991 RMK AO2 SLP123 T00111067 10022
                 20000 56005 $ =
2018-01-20 05:53 METAR KTTN 201053Z AUTO 20004KT 10SM CLR 01/M07 A2991 RMK AO2 SLP125 T00061072
                 PWINO FZRANO $ =
2018-01-20 04:53 METAR KTTN 200953Z AUTO 22005KT 10SM CLR 02/M07 A2991 RMK AO2 SLP125 T00171072
                 PWINO FZRANO $ =
2018-01-20 03:53 METAR KTTN 200853Z AUTO 24004KT 10SM CLR 02/M07 A2992 RMK AO2 SLP128 T00171072
                 58007 PWINO FZRANO $ =
2018-01-20 01:53 METAR KTTN 200653Z AUTO 23004KT 10SM CLR 02/M08 A2994 RMK AO2 SLP134 T00171083
                 PWINO FZRANO $ =
2018-01-20 00:53 METAR KTTN 200553Z AUTO 23007KT 10SM CLR 02/M08 A2994 RMK AO2 SLP135 T00171078
                 10033 20006 58015 PWINO FZRANO $ =
2018-01-19 23:53 METAR KTTN 200453Z AUTO 22006KT 10SM CLR 01/M08 A2996 RMK AO2 SLP143 T00111078
                 400501089 PWINO FZRANO $ =
2018-01-19 22:53 METAR KTTN 200353Z AUTO 00000KT 10SM CLR 02/M07 A2998 RMK AO2 SLP148 T00171072
                 PWINO FZRANO $ =
2018-01-19 21:53 METAR KTTN 200253Z 00000KT 10SM CLR 02/M07 A2999 RMK AO2 SLP150 T00171067 58002
                 $ =
2018-01-19 20:53 METAR KTTN 200153Z 21005KT 10SM CLR 01/M07 A2999 RMK AO2 SLP150 T00061067 $ =
2018-01-19 19:53 METAR KTTN 200053Z 22004KT 10SM CLR 02/M07 A2999 RMK AO2 SLP153 T00171072 $ =
2018-01-19 18:53 METAR KTTN 192353Z 22004KT 10SM CLR 03/M08 A2999 RMK AO2 SLP152 T00281078 10050
                 20022 50000 $ =
2018-01-19 17:53 METAR KTTN 192253Z 23003KT 10SM CLR 04/M08 A3000 RMK AO2 SLP154 T00391078 $ =
2018-01-19 16:53 METAR KTTN 192153Z 24006KT 10SM CLR 05/M07 A2999 RMK AO2 SLP153 T00501072 =
2018-01-19 15:53 METAR KTTN 192053Z 26008KT 10SM CLR 05/M08 A2999 RMK AO2 SLP152 T00501078 55010
                 =
2018-01-19 14:53 METAR KTTN 191953Z 23012G17KT 10SM CLR 05/M08 A2999 RMK AO2 SLP151 T00501078 $ =
2018-01-19 13:53 METAR KTTN 191853Z 27008KT 10SM CLR 04/M08 A3001 RMK AO2 SLP158 T00391083 $ =
2018-01-19 12:53 METAR KTTN 191753Z 26010G15KT 10SM CLR 03/M08 A3002 RMK AO2 SLP163 T00331083
                 10033 21078 58026 $ =
2018-01-19 11:53 METAR KTTN 191653Z 24006KT 10SM CLR 03/M08 A3006 RMK AO2 SLP174 T00281083 $ =
2018-01-19 10:53 METAR KTTN 191553Z 24006KT 7SM CLR 01/M07 A3009 RMK AO2 SLP186 T00061072 $ =

Support USWX by starting your Amazon purchase here.